createdAt,value
2023-04-13T00:00:54.646Z,0.93
2023-04-13T00:03:22.835Z,1.20
2023-04-13T00:05:52.229Z,1.33
2023-04-13T00:08:22.757Z,1.40
2023-04-13T00:10:51.128Z,1.10
2023-04-13T00:13:19.735Z,1.48
2023-04-13T00:15:49.161Z,1.33
2023-04-13T00:18:17.424Z,1.17
2023-04-13T00:20:46.609Z,0.90
2023-04-13T00:23:14.542Z,1.25
2023-04-13T00:25:42.476Z,1.33
2023-04-13T00:29:11.163Z,1.23
2023-04-13T00:31:40.340Z,1.00
2023-04-13T00:34:08.251Z,0.93
2023-04-13T00:36:36.052Z,0.98
2023-04-13T00:39:03.905Z,0.70
2023-04-13T00:41:32.166Z,0.80
2023-04-13T00:44:00.882Z,0.80
2023-04-13T00:46:29.722Z,1.20
2023-04-13T00:49:01.895Z,1.05
2023-04-13T00:51:30.759Z,0.90
2023-04-13T00:53:59.391Z,1.00
2023-04-13T00:56:28.286Z,0.80
2023-04-13T00:58:57.818Z,1.05
2023-04-13T01:01:26.056Z,1.17
2023-04-13T01:03:53.937Z,1.17
2023-04-13T01:06:27.967Z,0.80
2023-04-13T01:09:02.634Z,0.88
2023-04-13T01:11:39.481Z,0.90
2023-04-13T01:14:14.373Z,1.20
2023-04-13T01:16:45.832Z,0.90
2023-04-13T01:19:26.412Z,0.95
2023-04-13T01:21:56.595Z,1.27
2023-04-13T01:24:34.063Z,1.05
2023-04-13T01:27:11.541Z,1.23
2023-04-13T01:29:41.461Z,1.08
2023-04-13T01:32:11.247Z,1.00
2023-04-13T01:34:39.479Z,1.00
2023-04-13T01:37:07.730Z,0.90
2023-04-13T01:39:37.455Z,1.15
2023-04-13T01:42:05.296Z,0.88
2023-04-13T01:44:35.923Z,0.93
2023-04-13T01:47:16.437Z,1.20
2023-04-13T01:49:52.518Z,0.90
2023-04-13T01:52:21.239Z,1.00
2023-04-13T01:54:52.219Z,1.10
2023-04-13T01:57:20.994Z,1.10
2023-04-13T01:59:48.707Z,1.05
2023-04-13T02:02:17.983Z,1.00
2023-04-13T02:04:45.799Z,0.88
2023-04-13T02:07:13.766Z,1.00
2023-04-13T02:09:41.561Z,1.00
2023-04-13T02:12:09.667Z,1.00
2023-04-13T02:14:37.592Z,0.90
2023-04-13T02:17:05.742Z,1.20
2023-04-13T02:19:35.088Z,1.10
2023-04-13T02:22:02.827Z,1.25
2023-04-13T02:24:33.024Z,1.40
2023-04-13T02:27:02.080Z,0.90
2023-04-13T02:29:30.110Z,1.10
2023-04-13T02:31:58.064Z,1.30
2023-04-13T02:34:27.462Z,0.90
2023-04-13T02:36:56.847Z,1.00
2023-04-13T02:39:24.929Z,2.03
2023-04-13T02:41:52.674Z,1.15
2023-04-13T02:44:20.923Z,1.00
2023-04-13T02:46:48.730Z,1.10
2023-04-13T02:49:16.591Z,1.27
2023-04-13T02:51:44.351Z,1.75
2023-04-13T02:54:13.543Z,1.40
2023-04-13T02:56:41.286Z,1.63
2023-04-13T02:59:09.100Z,1.17
2023-04-13T03:01:37.194Z,1.13
2023-04-13T03:04:05.260Z,1.75
2023-04-13T03:06:33.419Z,1.20
2023-04-13T03:09:01.661Z,1.15
2023-04-13T03:11:30.809Z,1.00
2023-04-13T03:14:01.330Z,1.33
2023-04-13T03:16:29.633Z,1.08
2023-04-13T03:18:58.110Z,1.10
2023-04-13T03:21:25.900Z,0.73
2023-04-13T03:23:53.735Z,0.90
2023-04-13T03:26:21.819Z,1.05
2023-04-13T03:28:50.987Z,1.30
2023-04-13T03:31:19.101Z,1.10
2023-04-13T03:33:46.968Z,1.38
2023-04-13T03:36:15.623Z,1.02
2023-04-13T03:38:43.426Z,1.35
2023-04-13T03:41:11.638Z,1.38
2023-04-13T03:43:39.578Z,1.42
2023-04-13T03:46:09.690Z,1.25
2023-04-13T03:48:37.577Z,1.75
2023-04-13T03:51:05.475Z,1.23
2023-04-13T03:53:34.234Z,0.98
2023-04-13T03:56:02.211Z,1.13
2023-04-13T03:58:29.982Z,1.20
2023-04-13T04:00:57.977Z,1.13
2023-04-13T04:03:27.254Z,1.33
2023-04-13T04:05:55.150Z,1.58
2023-04-13T04:08:22.918Z,1.25
2023-04-13T04:10:50.630Z,1.75
2023-04-13T04:13:18.353Z,1.85
2023-04-13T04:15:46.137Z,1.33
2023-04-13T04:18:13.913Z,1.30
2023-04-13T04:20:43.103Z,1.17
2023-04-13T04:23:12.522Z,1.38
2023-04-13T04:25:40.709Z,0.85
2023-04-13T04:28:08.883Z,1.33
2023-04-13T04:30:37.130Z,0.98
2023-04-13T04:33:04.953Z,0.85
2023-04-13T04:35:35.910Z,1.23
2023-04-13T04:38:05.611Z,1.73
2023-04-13T04:40:35.710Z,1.55
2023-04-13T04:43:04.923Z,1.10
2023-04-13T04:45:33.100Z,1.23
2023-04-13T04:48:03.190Z,1.15
2023-04-13T04:50:31.112Z,1.50
2023-04-13T04:52:59.036Z,1.30
2023-04-13T04:55:28.164Z,1.10
2023-04-13T04:57:56.144Z,1.05
2023-04-13T05:00:26.390Z,1.17
2023-04-13T05:02:54.579Z,1.23
2023-04-13T05:05:22.639Z,1.23
2023-04-13T05:07:50.693Z,1.33
2023-04-13T05:10:18.447Z,1.30
2023-04-13T05:12:47.821Z,1.60
2023-04-13T05:15:15.641Z,1.23
2023-04-13T05:17:46.912Z,1.00
2023-04-13T05:20:14.856Z,1.08
2023-04-13T05:22:43.696Z,1.88
2023-04-13T05:25:12.233Z,1.27
2023-04-13T05:27:40.028Z,1.10
2023-04-13T05:30:10.596Z,1.30
2023-04-13T05:32:38.396Z,1.52
2023-04-13T05:35:07.817Z,1.40
2023-04-13T05:37:35.622Z,1.10
2023-04-13T05:40:08.314Z,1.73
2023-04-13T05:42:36.298Z,1.10
2023-04-13T05:45:09.639Z,1.30
2023-04-13T05:47:40.076Z,1.20
2023-04-13T05:50:09.735Z,1.40
2023-04-13T05:52:37.463Z,4.43
2023-04-13T05:55:06.865Z,3.38
2023-04-13T05:57:35.079Z,1.35
2023-04-13T06:00:03.307Z,1.08
2023-04-13T06:02:32.142Z,2.17
2023-04-13T06:05:02.022Z,1.27
2023-04-13T06:07:29.875Z,1.70
2023-04-13T06:09:57.623Z,2.00
2023-04-13T06:12:25.860Z,1.17
2023-04-13T06:14:53.597Z,1.58
2023-04-13T06:17:21.486Z,1.80
2023-04-13T06:19:49.304Z,1.30
2023-04-13T06:22:18.476Z,1.30
2023-04-13T06:24:46.206Z,1.80
2023-04-13T06:27:14.173Z,2.25
2023-04-13T06:29:42.400Z,1.63
2023-04-13T06:32:10.214Z,1.42
2023-04-13T06:34:37.926Z,1.58
2023-04-13T06:37:06.022Z,2.25
2023-04-13T06:39:37.791Z,1.58
2023-04-13T06:42:06.444Z,1.42
2023-04-13T06:44:34.228Z,1.40
2023-04-13T06:47:01.997Z,1.67
2023-04-13T06:49:30.360Z,1.52
2023-04-13T06:51:58.133Z,1.58
2023-04-13T06:54:26.065Z,1.35
2023-04-13T06:56:55.164Z,1.25
2023-04-13T06:59:22.852Z,1.52
2023-04-13T07:01:51.236Z,1.60
2023-04-13T07:04:19.679Z,1.20
2023-04-13T07:06:47.890Z,1.15
2023-04-13T07:09:16.193Z,1.70
2023-04-13T07:11:43.906Z,1.30
2023-04-13T07:14:12.982Z,1.80
2023-04-13T07:16:41.100Z,1.45
2023-04-13T07:19:08.866Z,1.00
2023-04-13T07:21:36.643Z,1.23
2023-04-13T07:24:04.828Z,1.50
2023-04-13T07:26:32.822Z,1.95
2023-04-13T07:29:00.651Z,1.52
2023-04-13T07:31:30.387Z,1.13
2023-04-13T07:33:58.145Z,1.77
2023-04-13T07:36:26.469Z,1.08
2023-04-13T07:38:54.255Z,1.55
2023-04-13T07:41:22.649Z,1.42
2023-04-13T07:43:51.252Z,1.70
2023-04-13T07:46:20.496Z,1.33
2023-04-13T07:48:49.606Z,0.90
2023-04-13T07:51:18.023Z,1.50
2023-04-13T07:53:45.890Z,1.65
2023-04-13T07:56:13.589Z,1.85
2023-04-13T07:58:41.715Z,1.50
2023-04-13T08:01:09.655Z,1.65
2023-04-13T08:03:38.122Z,1.30
2023-04-13T08:06:09.697Z,1.75
2023-04-13T08:08:37.487Z,1.50
2023-04-13T08:11:05.460Z,1.45
2023-04-13T08:13:33.277Z,1.80
2023-04-13T08:16:01.050Z,2.05
2023-04-13T08:18:29.800Z,1.60
2023-04-13T08:20:57.727Z,1.15
2023-04-13T08:23:27.535Z,1.23
2023-04-13T08:25:55.512Z,1.42
2023-04-13T08:28:23.283Z,1.73
2023-04-13T08:30:51.085Z,1.30
2023-04-13T08:33:18.790Z,1.52
2023-04-13T08:35:46.499Z,1.90
2023-04-13T08:38:14.267Z,1.50
2023-04-13T08:40:43.488Z,1.52
2023-04-13T08:43:11.522Z,1.30
2023-04-13T08:45:42.265Z,1.58
2023-04-13T08:48:11.802Z,1.25
2023-04-13T08:50:40.076Z,1.38
2023-04-13T08:53:08.271Z,1.40
2023-04-13T08:55:36.021Z,1.65
2023-04-13T08:58:06.510Z,1.10
2023-04-13T09:00:34.258Z,1.60
2023-04-13T09:03:09.051Z,1.55
2023-04-13T09:05:41.313Z,1.58
2023-04-13T09:08:11.828Z,1.15
2023-04-13T09:10:40.642Z,2.38
2023-04-13T09:13:09.930Z,1.98
2023-04-13T09:15:37.727Z,1.58
2023-04-13T09:18:09.990Z,1.70
2023-04-13T09:20:38.487Z,2.03
2023-04-13T09:23:14.696Z,2.45
2023-04-13T09:25:42.617Z,1.65
2023-04-13T09:28:18.765Z,1.48
2023-04-13T09:30:47.132Z,1.67
2023-04-13T09:33:16.963Z,1.60
2023-04-13T09:35:44.678Z,1.95
2023-04-13T09:38:15.472Z,1.27
2023-04-13T09:40:49.987Z,1.52
2023-04-13T09:43:19.515Z,1.38
2023-04-13T09:45:47.406Z,1.70
2023-04-13T09:48:20.647Z,1.50
2023-04-13T09:50:59.488Z,1.50
2023-04-13T09:53:29.263Z,1.40
2023-04-13T09:56:01.135Z,1.60
2023-04-13T09:58:31.215Z,1.55
2023-04-13T10:00:59.482Z,1.75
2023-04-13T10:03:28.515Z,1.85
2023-04-13T10:06:00.481Z,1.80
2023-04-13T10:11:02.405Z,1.40
2023-04-13T10:13:36.808Z,1.60
2023-04-13T10:16:28.176Z,3.05
2023-04-13T10:19:01.791Z,1.83
2023-04-13T10:21:33.756Z,1.63
2023-04-13T10:24:02.022Z,1.40
2023-04-13T10:26:33.564Z,1.77
2023-04-13T10:29:03.801Z,1.98
2023-04-13T10:31:39.522Z,1.50
2023-04-13T10:34:07.663Z,1.70
2023-04-13T10:36:39.868Z,1.42
2023-04-13T10:39:08.346Z,1.90
2023-04-13T10:41:36.613Z,1.70
2023-04-13T10:44:07.085Z,1.67
2023-04-13T10:46:35.670Z,2.05
2023-04-13T10:49:05.279Z,1.67
2023-04-13T10:51:42.566Z,1.80
2023-04-13T10:54:11.909Z,1.95
2023-04-13T10:56:40.183Z,1.70
2023-04-13T10:59:09.574Z,1.85
2023-04-13T11:01:41.290Z,1.73
2023-04-13T11:04:13.842Z,1.35
2023-04-13T11:06:44.897Z,1.60
2023-04-13T11:09:16.000Z,1.55
2023-04-13T11:11:44.438Z,1.67
2023-04-13T11:14:22.034Z,2.08
2023-04-13T11:16:50.362Z,1.80
2023-04-13T11:19:18.947Z,1.40
2023-04-13T11:21:48.874Z,1.92
2023-04-13T11:24:25.665Z,1.83
2023-04-13T11:26:54.353Z,1.90
2023-04-13T11:29:23.501Z,1.70
2023-04-13T11:31:51.995Z,1.67
2023-04-13T11:34:28.679Z,1.52
2023-04-13T11:37:05.687Z,1.90
2023-04-13T11:39:36.334Z,2.20
2023-04-13T11:42:08.105Z,1.83
2023-04-13T11:44:38.752Z,1.90
2023-04-13T11:47:08.684Z,1.80
2023-04-13T11:49:36.882Z,2.30
2023-04-13T11:52:04.870Z,2.03
2023-04-13T11:54:33.390Z,1.85
2023-04-13T11:57:01.852Z,2.08
2023-04-13T11:59:29.869Z,2.20
2023-04-13T12:02:03.826Z,1.80
2023-04-13T12:04:38.891Z,2.17
2023-04-13T12:07:14.031Z,1.65
2023-04-13T12:09:56.409Z,2.17
2023-04-13T12:15:13.779Z,1.65
2023-04-13T12:17:49.955Z,1.98
2023-04-13T12:20:20.710Z,1.75
2023-04-13T12:22:57.614Z,1.67
2023-04-13T12:28:01.703Z,1.60
2023-04-13T12:30:29.550Z,2.05
2023-04-13T12:32:58.710Z,1.20
2023-04-13T12:35:26.579Z,1.65
2023-04-13T12:37:54.385Z,1.13
2023-04-13T12:40:22.528Z,1.45
2023-04-13T12:42:50.809Z,1.90
2023-04-13T12:45:18.533Z,1.50
2023-04-13T12:47:46.287Z,1.52
2023-04-13T12:50:15.670Z,1.40
2023-04-13T12:52:44.485Z,1.13
2023-04-13T12:55:12.318Z,1.20
2023-04-13T12:57:40.564Z,1.50
2023-04-13T13:00:10.710Z,1.20
2023-04-13T13:02:38.744Z,1.40
2023-04-13T13:05:09.322Z,1.75
2023-04-13T13:07:38.618Z,1.52
2023-04-13T13:10:14.919Z,1.67
2023-04-13T13:12:49.879Z,1.65
2023-04-13T13:15:18.011Z,1.88
2023-04-13T13:17:45.824Z,1.35
2023-04-13T13:20:14.534Z,1.50
2023-04-13T13:22:44.180Z,1.67
2023-04-13T13:25:12.117Z,2.08
2023-04-13T13:28:10.478Z,2.20
2023-04-13T13:30:28.081Z,1.73
2023-04-13T13:32:56.028Z,1.70
2023-04-13T13:35:24.025Z,1.80
2023-04-13T13:37:53.156Z,1.67
2023-04-13T13:40:21.239Z,1.25
2023-04-13T13:42:52.380Z,1.38
2023-04-13T13:45:21.712Z,1.63
2023-04-13T13:47:53.710Z,1.77
2023-04-13T13:53:01.709Z,1.65
2023-04-13T13:55:32.843Z,3.13
2023-04-13T13:58:00.713Z,2.10
2023-04-13T14:00:28.554Z,1.67
2023-04-13T14:02:56.516Z,1.80
2023-04-13T14:05:24.576Z,1.70
2023-04-13T14:07:52.380Z,1.75
2023-04-13T14:10:20.448Z,1.63
2023-04-13T14:12:50.928Z,1.60
2023-04-13T14:15:19.534Z,1.50
2023-04-13T14:17:55.909Z,1.25
2023-04-13T14:20:35.258Z,1.50
2023-04-13T14:23:03.611Z,1.40
2023-04-13T14:25:31.574Z,1.50
2023-04-13T14:28:00.807Z,1.10
2023-04-13T14:30:28.949Z,1.30
2023-04-13T14:32:57.324Z,1.17
2023-04-13T14:35:25.134Z,1.20
2023-04-13T14:37:53.430Z,1.20
2023-04-13T14:40:22.569Z,1.27
2023-04-13T14:42:53.008Z,0.80
2023-04-13T14:45:22.236Z,1.40
2023-04-13T14:47:50.149Z,0.90
2023-04-13T14:50:18.683Z,1.10
2023-04-13T14:52:47.085Z,1.20
2023-04-13T14:55:15.532Z,1.30
2023-04-13T14:57:43.378Z,0.95
2023-04-13T15:00:15.808Z,1.17
2023-04-13T15:02:45.040Z,1.17
2023-04-13T15:05:13.132Z,1.35
2023-04-13T15:07:41.000Z,1.33
2023-04-13T15:10:09.915Z,1.23
2023-04-13T15:12:37.768Z,1.20
2023-04-13T15:15:06.983Z,0.85
2023-04-13T15:17:34.812Z,1.23
2023-04-13T15:20:07.723Z,1.10
2023-04-13T15:22:36.857Z,0.85
2023-04-13T15:25:05.031Z,1.50
2023-04-13T15:27:32.794Z,1.55
2023-04-13T15:30:03.080Z,1.15
2023-04-13T15:32:31.409Z,0.93
2023-04-13T15:34:59.214Z,0.77
2023-04-13T15:37:28.397Z,0.98
2023-04-13T15:39:56.196Z,1.02
2023-04-13T15:42:23.943Z,1.27
2023-04-13T15:44:51.756Z,1.33
2023-04-13T15:47:19.567Z,1.02
2023-04-13T15:49:47.277Z,0.98
2023-04-13T15:52:15.006Z,1.05
2023-04-13T15:54:44.045Z,1.50
2023-04-13T15:57:12.342Z,1.25
2023-04-13T15:59:40.138Z,1.30
2023-04-13T16:02:08.513Z,1.65
2023-04-13T16:04:37.059Z,1.42
2023-04-13T16:07:12.937Z,1.45
2023-04-13T16:09:44.947Z,1.30
2023-04-13T16:12:12.797Z,1.50
2023-04-13T16:14:41.914Z,1.65
2023-04-13T16:17:10.415Z,1.30
2023-04-13T16:19:39.796Z,1.20
2023-04-13T16:22:09.811Z,1.50
2023-04-13T16:24:38.370Z,1.55
2023-04-13T16:27:08.635Z,1.67
2023-04-13T16:29:36.579Z,0.98
2023-04-13T16:32:04.327Z,1.38
2023-04-13T16:34:32.121Z,1.30
2023-04-13T16:36:59.925Z,1.50
2023-04-13T16:39:27.777Z,1.30
2023-04-13T16:41:55.539Z,1.35
2023-04-13T16:44:25.035Z,1.20
2023-04-13T16:46:52.920Z,1.25
2023-04-13T16:49:20.767Z,3.80
2023-04-13T16:51:49.279Z,1.48
2023-04-13T16:54:18.154Z,1.25
2023-04-13T16:56:46.224Z,1.40
2023-04-13T16:59:14.174Z,1.27
2023-04-13T17:01:43.306Z,1.38
2023-04-13T17:04:11.922Z,1.33
2023-04-13T17:06:40.196Z,1.25
2023-04-13T17:09:08.200Z,1.27
2023-04-13T17:11:36.189Z,7.97
2023-04-13T17:14:03.914Z,1.17
2023-04-13T17:16:31.825Z,1.20
2023-04-13T17:19:01.568Z,1.20
2023-04-13T17:21:29.982Z,1.40
2023-04-13T17:23:57.733Z,1.30
2023-04-13T17:26:26.099Z,1.30
2023-04-13T17:28:53.863Z,1.10
2023-04-13T17:31:22.001Z,1.58
2023-04-13T17:33:51.118Z,1.00
2023-04-13T17:36:22.000Z,1.02
2023-04-13T17:38:49.843Z,1.48
2023-04-13T17:41:18.156Z,1.60
2023-04-13T17:43:45.916Z,0.98
2023-04-13T17:46:13.725Z,0.95
2023-04-13T17:48:42.060Z,0.90
2023-04-13T17:51:11.609Z,0.82
2023-04-13T17:53:40.930Z,1.10
2023-04-13T17:56:14.683Z,0.80
2023-04-13T17:58:42.511Z,1.50
2023-04-13T18:01:11.422Z,0.90
2023-04-13T18:03:40.007Z,1.15
2023-04-13T18:06:08.073Z,1.38
2023-04-13T18:08:36.003Z,1.52
2023-04-13T18:11:05.259Z,1.30
2023-04-13T18:13:34.305Z,0.98
2023-04-13T18:16:02.415Z,1.23
2023-04-13T18:18:30.752Z,1.83
2023-04-13T18:20:58.529Z,1.70
2023-04-13T18:23:26.295Z,1.75
2023-04-13T18:25:54.040Z,1.75
2023-04-13T18:28:23.229Z,1.50
2023-04-13T18:30:51.014Z,1.55
2023-04-13T18:33:18.868Z,1.30
2023-04-13T18:35:46.970Z,1.60
2023-04-13T18:38:14.734Z,1.00
2023-04-13T18:40:42.540Z,1.50
2023-04-13T18:43:10.485Z,1.83
2023-04-13T18:45:39.740Z,2.13
2023-04-13T18:48:09.452Z,2.20
2023-04-13T18:50:37.909Z,2.00
2023-04-13T18:53:05.980Z,1.80
2023-04-13T18:55:33.907Z,1.73
2023-04-13T18:58:01.745Z,1.83
2023-04-13T19:00:29.773Z,1.60
2023-04-13T19:02:59.072Z,1.70
2023-04-13T19:05:27.815Z,2.00
2023-04-13T19:07:58.737Z,2.15
2023-04-13T19:10:28.088Z,2.03
2023-04-13T19:12:56.536Z,1.77
2023-04-13T19:15:25.095Z,1.80
2023-04-13T19:17:53.414Z,1.90
2023-04-13T19:20:25.074Z,1.95
2023-04-13T19:22:52.761Z,4.80
2023-04-13T19:25:20.779Z,3.00
2023-04-13T19:27:50.097Z,4.78
2023-04-13T19:30:19.505Z,2.65
2023-04-13T19:32:48.930Z,5.18
2023-04-13T19:35:16.930Z,2.95
2023-04-13T19:37:46.184Z,2.78
2023-04-13T19:40:15.214Z,14.45
2023-04-13T19:42:44.476Z,3.00
2023-04-13T19:45:13.290Z,1.95
2023-04-13T19:47:42.285Z,2.40
2023-04-13T19:50:12.464Z,1.95
2023-04-13T19:52:41.325Z,2.15
2023-04-13T19:55:12.059Z,1.70
2023-04-13T19:57:42.945Z,1.58
2023-04-13T20:00:19.014Z,1.58
2023-04-13T20:02:48.001Z,1.65
2023-04-13T20:05:16.002Z,1.63
2023-04-13T20:07:43.830Z,2.03
2023-04-13T20:10:13.545Z,2.10
2023-04-13T20:12:41.299Z,1.90
2023-04-13T20:15:09.434Z,1.80
2023-04-13T20:17:37.241Z,2.00
2023-04-13T20:20:07.352Z,2.35
2023-04-13T20:22:35.350Z,3.10
2023-04-13T20:25:03.476Z,2.92
2023-04-13T20:27:34.259Z,2.80
2023-04-13T20:30:02.159Z,1.90
2023-04-13T20:32:29.988Z,1.90
2023-04-13T20:34:57.822Z,1.65
2023-04-13T20:37:25.608Z,1.77
2023-04-13T20:39:54.078Z,2.38
2023-04-13T20:42:22.413Z,12.60
2023-04-13T20:44:57.437Z,4.15
2023-04-13T20:47:26.599Z,3.35
2023-04-13T20:49:57.271Z,2.80
2023-04-13T20:52:25.852Z,1.80
2023-04-13T20:54:54.565Z,1.65
2023-04-13T20:57:22.470Z,1.77
2023-04-13T20:59:52.690Z,2.15
2023-04-13T21:02:21.219Z,1.75
2023-04-13T21:04:49.318Z,2.10
2023-04-13T21:07:17.143Z,1.90
2023-04-13T21:09:45.708Z,1.98
2023-04-13T21:12:13.503Z,2.20
2023-04-13T21:14:41.298Z,2.20
2023-04-13T21:17:10.521Z,2.08
2023-04-13T21:19:38.296Z,2.92
2023-04-13T21:22:06.115Z,2.70
2023-04-13T21:24:33.847Z,2.40
2023-04-13T21:27:02.411Z,2.28
2023-04-13T21:29:30.133Z,2.67
2023-04-13T21:31:58.178Z,2.88
2023-04-13T21:34:27.373Z,2.55
2023-04-13T21:36:55.486Z,4.50
2023-04-13T21:39:23.465Z,3.22
2023-04-13T21:41:51.258Z,2.70
2023-04-13T21:44:29.301Z,2.28
2023-04-13T21:46:58.456Z,2.50
2023-04-13T21:49:28.164Z,3.05
2023-04-13T21:51:56.024Z,2.65
2023-04-13T21:54:23.821Z,2.35
2023-04-13T21:56:51.737Z,2.67
2023-04-13T21:59:19.572Z,2.83
2023-04-13T22:01:47.658Z,2.40
2023-04-13T22:04:15.822Z,2.72
2023-04-13T22:06:45.000Z,2.75
2023-04-13T22:09:13.441Z,2.97
2023-04-13T22:11:41.415Z,2.60
2023-04-13T22:14:09.272Z,3.50
2023-04-13T22:16:37.087Z,4.30
2023-04-13T22:19:04.930Z,3.95
2023-04-13T22:21:35.438Z,4.82
2023-04-13T22:24:04.876Z,5.25
2023-04-13T22:26:32.665Z,4.90
2023-04-13T22:29:00.673Z,5.00
2023-04-13T22:31:28.684Z,4.00
2023-04-13T22:33:57.113Z,4.15
2023-04-13T22:36:25.337Z,3.90
2023-04-13T22:38:54.443Z,4.00
2023-04-13T22:41:23.642Z,3.53
2023-04-13T22:43:51.346Z,3.70
2023-04-13T22:46:19.471Z,3.97
2023-04-13T22:48:48.205Z,3.70
2023-04-13T22:51:16.309Z,3.75
2023-04-13T22:53:44.210Z,3.63
2023-04-13T22:56:11.913Z,4.20
2023-04-13T22:58:40.970Z,3.60
2023-04-13T23:01:08.686Z,4.82
2023-04-13T23:03:36.621Z,3.83
2023-04-13T23:06:05.927Z,3.47
2023-04-13T23:08:33.658Z,4.00
2023-04-13T23:11:09.251Z,4.28
2023-04-13T23:13:37.162Z,3.85
2023-04-13T23:16:07.188Z,5.47
2023-04-13T23:18:35.099Z,6.38
2023-04-13T23:21:10.556Z,6.63
2023-04-13T23:23:38.831Z,7.05
2023-04-13T23:26:07.349Z,6.10
2023-04-13T23:28:35.198Z,6.60
2023-04-13T23:31:09.025Z,7.35
2023-04-13T23:33:36.943Z,6.47
2023-04-13T23:36:05.367Z,6.80
2023-04-13T23:38:33.825Z,6.30
2023-04-13T23:41:01.652Z,6.55
2023-04-13T23:43:29.419Z,6.13
2023-04-13T23:45:58.913Z,6.65
2023-04-13T23:48:28.265Z,6.32
2023-04-13T23:50:57.297Z,6.65
2023-04-13T23:53:25.153Z,6.25
2023-04-13T23:55:52.824Z,6.78
2023-04-13T23:58:20.510Z,6.85
